Terminal Aerodrome Forecast
Issued by NWS

Home | Current Version | Previous Version | Text Only | Print | Product List | Glossary On
Versions: 1 2 3 4 5 6 7 8 9 10 11 12 13
000
FTUS45 KTWC 162300
TAFOLS
TAF
KOLS 162331Z 1700/1724 24011KT P6SM SKC
     FM170300 VRB04KT P6SM FEW250
     FM172000 22009KT P6SM SCT250=

USA.gov is the U.S. government's official web portal to all federal, state and local government web resources and services.